Time;durP1;ratioP1;P1;durP2;ratioP2;P2;SDS_P1;SDS_P2;PMS_P1;PMS_P2;Temp;Humidity;BMP_temperature;BMP_pressure;BME280_temperature;BME280_humidity;BME280_pressure;Samples;Min_cycle;Max_cycle;Signal;HPM_P1;HPM_P2
2023/12/08 20:07:59;;;;;;;;;76.50;59.00;;;;;;;;5127276;27;13407;-77
2023/12/08 20:10:24;;;;;;;;;75.50;61.25;;;;;;;;5128821;27;8804;-76
2023/12/08 20:12:52;;;;;;;;;74.33;58.33;;;;;;;;5131246;27;8803;-76
2023/12/08 20:15:17;;;;;;;;;76.75;60.25;;;;;;;;5128220;27;9583;-74
2023/12/08 20:17:42;;;;;;;;;77.00;57.00;;;;;;;;5129949;27;8815;-73
2023/12/08 20:20:08;;;;;;;;;70.67;58.00;;;;;;;;5127911;27;9658;-73
2023/12/08 20:22:34;;;;;;;;;75.33;60.00;;;;;;;;5128821;27;8785;-72
2023/12/08 20:24:59;;;;;;;;;76.33;59.00;;;;;;;;5108920;27;8825;-74
2023/12/08 20:27:24;;;;;;;;;72.33;58.00;;;;;;;;5128671;27;8811;-75
2023/12/08 20:29:49;;;;;;;;;76.00;60.00;;;;;;;;5128550;27;8815;-75
2023/12/08 20:32:15;;;;;;;;;72.00;58.67;;;;;;;;5128314;27;8804;-71
2023/12/08 20:34:42;;;;;;;;;84.00;64.00;;;;;;;;5131307;27;8910;-71
2023/12/08 20:37:07;;;;;;;;;74.67;61.33;;;;;;;;5147964;27;8824;-72
2023/12/08 20:39:33;;;;;;;;;74.67;60.00;;;;;;;;5127847;27;8803;-72
2023/12/08 20:41:58;;;;;;;;;76.33;59.00;;;;;;;;5127741;27;8780;-72
2023/12/08 20:44:23;;;;;;;;;75.33;59.67;;;;;;;;5127860;27;8801;-72
2023/12/08 20:46:48;;;;;;;;;73.00;57.33;;;;;;;;5128074;27;8820;-75
2023/12/08 20:49:14;;;;;;;;;74.67;58.33;;;;;;;;5130261;27;8797;-75
2023/12/08 20:51:39;;;;;;;;;70.33;54.67;;;;;;;;5127730;27;8800;-74
2023/12/08 20:54:04;;;;;;;;;71.67;56.33;;;;;;;;5126712;27;8796;-74
2023/12/08 20:56:31;;;;;;;;;72.67;57.67;;;;;;;;5127491;27;9557;-74
2023/12/08 20:58:57;;;;;;;;;69.33;55.67;;;;;;;;5128043;27;8771;-74
2023/12/08 21:01:22;;;;;;;;;71.33;57.00;;;;;;;;5127749;27;8796;-74
2023/12/08 21:03:48;;;;;;;;;51.00;46.00;;;;;;;;5128221;27;9516;-74
2023/12/08 21:06:13;;;;;;;;;70.00;56.33;;;;;;;;5124165;27;8821;-75
2023/12/08 21:08:39;;;;;;;;;68.00;55.00;;;;;;;;5110919;27;8799;-75
2023/12/08 21:11:04;;;;;;;;;70.00;56.00;;;;;;;;5127633;27;8792;-75
2023/12/08 21:13:29;;;;;;;;;64.00;54.67;;;;;;;;5127916;27;8826;-75
2023/12/08 21:15:55;;;;;;;;;69.00;55.33;;;;;;;;5125905;27;8888;-74
2023/12/08 21:18:21;;;;;;;;;62.67;51.00;;;;;;;;5119516;27;8792;-74
2023/12/08 21:20:49;;;;;;;;;64.67;52.67;;;;;;;;5097046;28;8819;-73
2023/12/08 21:23:14;;;;;;;;;63.33;52.00;;;;;;;;5114214;28;9551;-74
2023/12/08 21:25:39;;;;;;;;;65.67;54.33;;;;;;;;5111514;27;8803;-73
2023/12/08 21:28:05;;;;;;;;;59.33;50.00;;;;;;;;5113859;28;8800;-74
2023/12/08 21:30:30;;;;;;;;;60.00;47.33;;;;;;;;5113459;27;8930;-73
2023/12/08 21:32:55;;;;;;;;;61.67;51.33;;;;;;;;5113679;28;8883;-74
2023/12/08 21:35:20;;;;;;;;;68.00;54.67;;;;;;;;5121229;27;8786;-74
2023/12/08 21:37:46;;;;;;;;;50.00;39.33;;;;;;;;5134146;27;8826;-76
2023/12/08 21:40:11;;;;;;;;;62.00;52.00;;;;;;;;5134510;27;8778;-75
2023/12/08 21:42:43;;;;;;;;;66.33;51.00;;;;;;;;5113866;28;8791;-76
2023/12/08 21:45:10;;;;;;;;;64.33;51.00;;;;;;;;5117709;27;8825;-75
2023/12/08 21:47:35;;;;;;;;;51.67;41.33;;;;;;;;5123795;27;9352;-72
2023/12/08 21:50:02;;;;;;;;;59.00;49.67;;;;;;;;5115680;28;8788;-71
2023/12/08 21:52:28;;;;;;;;;55.67;46.33;;;;;;;;5113484;28;8907;-72
2023/12/08 21:54:53;;;;;;;;;61.00;46.33;;;;;;;;5113300;28;8895;-72
2023/12/08 21:57:18;;;;;;;;;50.33;42.33;;;;;;;;5113429;28;8872;-72
2023/12/08 21:59:43;;;;;;;;;53.67;45.00;;;;;;;;5113096;28;8764;-72
2023/12/08 22:02:09;;;;;;;;;55.00;48.00;;;;;;;;5113249;28;8873;-71
2023/12/08 22:04:34;;;;;;;;;52.00;42.00;;;;;;;;5112992;28;8810;-72
2023/12/08 22:06:59;;;;;;;;;61.67;45.00;;;;;;;;5112933;28;8953;-72
2023/12/08 22:09:25;;;;;;;;;56.67;46.00;;;;;;;;5112999;28;8803;-72
2023/12/08 22:11:50;;;;;;;;;49.67;45.33;;;;;;;;5113152;28;8876;-72
2023/12/08 22:14:15;;;;;;;;;59.67;47.00;;;;;;;;5112667;28;8788;-72
2023/12/08 22:16:41;;;;;;;;;55.00;46.00;;;;;;;;5112876;27;8803;-72
2023/12/08 22:19:06;;;;;;;;;55.33;45.00;;;;;;;;5112714;28;8776;-73
2023/12/08 22:21:31;;;;;;;;;58.67;46.00;;;;;;;;5114444;28;8885;-72
2023/12/08 22:23:57;;;;;;;;;47.67;43.00;;;;;;;;5112716;28;8784;-73
2023/12/08 22:26:23;;;;;;;;;53.33;44.00;;;;;;;;5112655;28;8935;-72
2023/12/08 22:28:48;;;;;;;;;57.00;46.33;;;;;;;;5112504;28;9474;-71
2023/12/08 22:31:13;;;;;;;;;55.00;46.00;;;;;;;;5111413;28;8809;-71
2023/12/08 22:33:39;;;;;;;;;47.00;42.00;;;;;;;;5111087;28;8777;-71
2023/12/08 22:36:05;;;;;;;;;45.67;40.00;;;;;;;;5112689;28;8906;-74
2023/12/08 22:38:31;;;;;;;;;49.67;43.00;;;;;;;;5112898;28;8896;-74
2023/12/08 22:40:56;;;;;;;;;50.67;42.67;;;;;;;;5112477;28;12208;-71
2023/12/08 22:43:21;;;;;;;;;47.00;42.67;;;;;;;;5112475;28;8772;-71
2023/12/08 22:45:46;;;;;;;;;43.00;41.00;;;;;;;;5112310;28;8830;-71
2023/12/08 22:48:12;;;;;;;;;53.67;46.67;;;;;;;;5112230;28;8806;-70
2023/12/08 22:50:37;;;;;;;;;51.33;43.33;;;;;;;;5112378;28;8780;-71
2023/12/08 22:53:02;;;;;;;;;44.00;39.00;;;;;;;;5094123;28;8796;-71
2023/12/08 22:55:28;;;;;;;;;49.67;43.67;;;;;;;;5112534;28;8815;-71
2023/12/08 22:57:53;;;;;;;;;46.00;41.67;;;;;;;;5112354;28;8784;-71
2023/12/08 23:00:21;;;;;;;;;46.33;42.00;;;;;;;;5112394;28;8827;-71
2023/12/08 23:02:47;;;;;;;;;42.33;38.67;;;;;;;;5112287;28;8796;-71
2023/12/08 23:05:12;;;;;;;;;41.67;38.33;;;;;;;;5093544;28;11543;-71
2023/12/08 23:07:37;;;;;;;;;39.00;39.00;;;;;;;;5111881;28;8843;-71
2023/12/08 23:10:03;;;;;;;;;48.33;42.00;;;;;;;;5112070;28;8868;-71
2023/12/08 23:12:28;;;;;;;;;44.33;36.00;;;;;;;;5112076;28;8792;-71
2023/12/08 23:14:53;;;;;;;;;46.67;41.33;;;;;;;;5111853;28;8807;-71
2023/12/08 23:17:20;;;;;;;;;52.67;43.33;;;;;;;;5111897;28;8811;-71
2023/12/08 23:19:45;;;;;;;;;45.33;39.00;;;;;;;;5111755;28;8817;-71
2023/12/08 23:22:10;;;;;;;;;48.00;44.00;;;;;;;;5093512;28;8792;-71
2023/12/08 23:24:36;;;;;;;;;50.67;43.00;;;;;;;;5111736;28;8888;-71
2023/12/08 23:27:01;;;;;;;;;54.33;45.00;;;;;;;;5111697;28;8975;-71
2023/12/08 23:29:26;;;;;;;;;50.33;43.00;;;;;;;;5111725;28;8802;-71
2023/12/08 23:31:51;;;;;;;;;54.33;45.33;;;;;;;;5111724;28;8896;-71
2023/12/08 23:34:17;;;;;;;;;53.33;45.00;;;;;;;;5111512;28;8856;-71
2023/12/08 23:36:42;;;;;;;;;46.33;39.00;;;;;;;;5111481;28;8792;-71
2023/12/08 23:39:07;;;;;;;;;46.67;39.00;;;;;;;;5111598;28;8768;-71
2023/12/08 23:41:33;;;;;;;;;50.33;43.00;;;;;;;;5111303;28;8784;-71
2023/12/08 23:43:58;;;;;;;;;44.00;40.67;;;;;;;;5093298;28;8796;-71
2023/12/08 23:46:23;;;;;;;;;36.33;32.67;;;;;;;;5111393;28;8858;-71
2023/12/08 23:48:52;;;;;;;;;50.00;43.00;;;;;;;;5111302;28;8788;-71
